sensor_id;sensor_type;location;lat;lon;timestamp;pressure;altitude;pressure_sealevel;temperature;humidity
9139;BME280;4604;48.616;9.548;2023-12-20T00:01:12;96932.41;;;7.25;98.62
9139;BME280;4604;48.616;9.548;2023-12-20T00:03:38;96936.47;;;7.18;99.29
9139;BME280;4604;48.616;9.548;2023-12-20T00:06:05;96925.94;;;7.06;99.59
9139;BME280;4604;48.616;9.548;2023-12-20T00:08:32;96936.59;;;7.27;98.22
9139;BME280;4604;48.616;9.548;2023-12-20T00:10:58;96930.50;;;7.16;97.83
9139;BME280;4604;48.616;9.548;2023-12-20T00:13:26;96942.56;;;7.29;97.86
9139;BME280;4604;48.616;9.548;2023-12-20T00:15:53;96935.03;;;7.25;96.70
9139;BME280;4604;48.616;9.548;2023-12-20T00:18:20;96933.50;;;7.45;95.58
9139;BME280;4604;48.616;9.548;2023-12-20T00:20:46;96904.25;;;7.16;97.10
9139;BME280;4604;48.616;9.548;2023-12-20T00:23:13;96901.50;;;7.28;96.98
9139;BME280;4604;48.616;9.548;2023-12-20T00:25:40;96888.28;;;7.41;96.01
9139;BME280;4604;48.616;9.548;2023-12-20T00:28:06;96887.53;;;7.50;95.70
9139;BME280;4604;48.616;9.548;2023-12-20T00:30:34;96896.50;;;7.37;96.75
9139;BME280;4604;48.616;9.548;2023-12-20T00:33:01;96884.31;;;7.47;96.60
9139;BME280;4604;48.616;9.548;2023-12-20T00:35:28;96885.66;;;7.41;96.69
9139;BME280;4604;48.616;9.548;2023-12-20T00:37:55;96870.56;;;7.43;96.48
9139;BME280;4604;48.616;9.548;2023-12-20T00:40:22;96860.22;;;7.31;97.73
9139;BME280;4604;48.616;9.548;2023-12-20T00:42:48;96858.16;;;7.45;96.21
9139;BME280;4604;48.616;9.548;2023-12-20T00:45:15;96861.41;;;7.49;95.25
9139;BME280;4604;48.616;9.548;2023-12-20T00:47:42;96856.38;;;7.46;96.05
9139;BME280;4604;48.616;9.548;2023-12-20T00:50:09;96860.06;;;7.55;95.90
9139;BME280;4604;48.616;9.548;2023-12-20T00:52:36;96857.47;;;7.32;97.55
9139;BME280;4604;48.616;9.548;2023-12-20T00:55:03;96856.72;;;7.53;97.03
9139;BME280;4604;48.616;9.548;2023-12-20T00:57:30;96859.50;;;7.40;96.98
9139;BME280;4604;48.616;9.548;2023-12-20T00:59:57;96851.22;;;7.56;96.54
9139;BME280;4604;48.616;9.548;2023-12-20T01:02:23;96841.84;;;7.42;97.33
9139;BME280;4604;48.616;9.548;2023-12-20T01:04:51;96841.59;;;7.34;98.54
9139;BME280;4604;48.616;9.548;2023-12-20T01:07:18;96841.00;;;7.41;98.58
9139;BME280;4604;48.616;9.548;2023-12-20T01:09:45;96839.94;;;7.33;96.08
9139;BME280;4604;48.616;9.548;2023-12-20T01:12:11;96846.25;;;7.30;96.70
9139;BME280;4604;48.616;9.548;2023-12-20T01:14:38;96840.41;;;7.49;96.02
9139;BME280;4604;48.616;9.548;2023-12-20T01:17:05;96858.41;;;7.54;93.82
9139;BME280;4604;48.616;9.548;2023-12-20T01:19:32;96853.16;;;7.42;94.55
9139;BME280;4604;48.616;9.548;2023-12-20T01:22:00;96855.78;;;7.42;92.61
9139;BME280;4604;48.616;9.548;2023-12-20T01:24:26;96853.16;;;7.31;93.56
9139;BME280;4604;48.616;9.548;2023-12-20T01:26:53;96862.59;;;7.45;93.69
9139;BME280;4604;48.616;9.548;2023-12-20T01:29:19;96853.41;;;7.28;94.26
9139;BME280;4604;48.616;9.548;2023-12-20T01:31:46;96877.16;;;7.38;94.96
9139;BME280;4604;48.616;9.548;2023-12-20T01:34:13;96885.88;;;7.38;94.54
9139;BME280;4604;48.616;9.548;2023-12-20T01:36:39;96873.34;;;7.31;95.09
9139;BME280;4604;48.616;9.548;2023-12-20T01:39:07;96888.63;;;7.25;95.54
9139;BME280;4604;48.616;9.548;2023-12-20T01:41:34;96887.41;;;7.18;96.45
9139;BME280;4604;48.616;9.548;2023-12-20T01:44:00;96890.28;;;7.15;97.63
9139;BME280;4604;48.616;9.548;2023-12-20T01:46:27;96898.38;;;7.01;99.19
9139;BME280;4604;48.616;9.548;2023-12-20T01:48:54;96915.91;;;6.89;100.00
9139;BME280;4604;48.616;9.548;2023-12-20T01:51:20;96918.03;;;6.84;100.00
9139;BME280;4604;48.616;9.548;2023-12-20T01:53:48;96886.16;;;6.55;100.00
9139;BME280;4604;48.616;9.548;2023-12-20T01:56:16;96918.59;;;6.65;100.00
9139;BME280;4604;48.616;9.548;2023-12-20T01:58:44;96916.69;;;6.67;100.00
9139;BME280;4604;48.616;9.548;2023-12-20T02:01:12;96921.53;;;6.49;100.00
9139;BME280;4604;48.616;9.548;2023-12-20T02:03:41;96925.66;;;6.40;100.00
9139;BME280;4604;48.616;9.548;2023-12-20T02:06:08;96918.69;;;6.28;100.00
9139;BME280;4604;48.616;9.548;2023-12-20T02:08:35;96895.84;;;6.30;100.00
9139;BME280;4604;48.616;9.548;2023-12-20T02:11:02;96906.66;;;6.26;100.00
9139;BME280;4604;48.616;9.548;2023-12-20T02:13:30;96892.50;;;6.04;100.00
9139;BME280;4604;48.616;9.548;2023-12-20T02:15:57;96905.09;;;6.23;100.00
9139;BME280;4604;48.616;9.548;2023-12-20T02:18:24;96886.31;;;6.29;100.00
9139;BME280;4604;48.616;9.548;2023-12-20T02:20:50;96879.22;;;6.18;100.00
9139;BME280;4604;48.616;9.548;2023-12-20T02:23:18;96899.34;;;6.42;100.00
9139;BME280;4604;48.616;9.548;2023-12-20T02:25:45;96895.22;;;6.27;100.00
9139;BME280;4604;48.616;9.548;2023-12-20T02:28:12;96876.22;;;6.12;100.00
9139;BME280;4604;48.616;9.548;2023-12-20T02:30:38;96886.69;;;6.12;100.00
9139;BME280;4604;48.616;9.548;2023-12-20T02:33:07;96895.63;;;6.09;100.00
9139;BME280;4604;48.616;9.548;2023-12-20T02:35:37;96883.97;;;6.13;100.00
9139;BME280;4604;48.616;9.548;2023-12-20T02:38:03;96869.41;;;6.09;100.00
9139;BME280;4604;48.616;9.548;2023-12-20T02:40:31;96865.00;;;5.86;100.00
9139;BME280;4604;48.616;9.548;2023-12-20T02:42:58;96875.78;;;5.94;100.00
9139;BME280;4604;48.616;9.548;2023-12-20T02:45:25;96884.28;;;5.97;100.00
9139;BME280;4604;48.616;9.548;2023-12-20T02:47:52;96882.66;;;6.08;100.00
9139;BME280;4604;48.616;9.548;2023-12-20T02:50:19;96871.28;;;5.96;100.00
9139;BME280;4604;48.616;9.548;2023-12-20T02:52:46;96887.06;;;6.07;100.00
9139;BME280;4604;48.616;9.548;2023-12-20T02:55:12;96876.91;;;6.03;100.00
9139;BME280;4604;48.616;9.548;2023-12-20T02:57:40;96889.38;;;5.99;100.00
9139;BME280;4604;48.616;9.548;2023-12-20T03:00:08;96890.22;;;5.99;100.00
9139;BME280;4604;48.616;9.548;2023-12-20T03:02:36;96880.75;;;6.10;100.00
9139;BME280;4604;48.616;9.548;2023-12-20T03:05:02;96887.19;;;5.93;100.00
9139;BME280;4604;48.616;9.548;2023-12-20T03:07:29;96892.53;;;5.91;100.00
9139;BME280;4604;48.616;9.548;2023-12-20T03:09:55;96877.97;;;6.00;100.00
9139;BME280;4604;48.616;9.548;2023-12-20T03:12:22;96882.28;;;5.88;100.00
9139;BME280;4604;48.616;9.548;2023-12-20T03:14:50;96880.94;;;5.95;100.00
9139;BME280;4604;48.616;9.548;2023-12-20T03:17:17;96883.41;;;5.97;100.00
9139;BME280;4604;48.616;9.548;2023-12-20T03:19:44;96887.41;;;5.90;100.00
9139;BME280;4604;48.616;9.548;2023-12-20T03:22:10;96885.75;;;5.89;100.00
9139;BME280;4604;48.616;9.548;2023-12-20T03:24:37;96894.88;;;5.83;100.00
9139;BME280;4604;48.616;9.548;2023-12-20T03:27:04;96895.47;;;5.87;100.00
9139;BME280;4604;48.616;9.548;2023-12-20T03:29:30;96893.69;;;5.87;100.00
9139;BME280;4604;48.616;9.548;2023-12-20T03:31:58;96892.09;;;5.73;100.00
9139;BME280;4604;48.616;9.548;2023-12-20T03:34:25;96889.34;;;5.75;100.00
9139;BME280;4604;48.616;9.548;2023-12-20T03:36:52;96907.66;;;5.75;100.00
9139;BME280;4604;48.616;9.548;2023-12-20T03:39:19;96901.00;;;5.71;100.00
9139;BME280;4604;48.616;9.548;2023-12-20T03:41:45;96910.00;;;5.67;100.00
9139;BME280;4604;48.616;9.548;2023-12-20T03:44:12;96899.94;;;5.73;100.00
9139;BME280;4604;48.616;9.548;2023-12-20T03:46:38;96904.44;;;5.71;100.00
9139;BME280;4604;48.616;9.548;2023-12-20T03:49:06;96910.97;;;5.66;100.00
9139;BME280;4604;48.616;9.548;2023-12-20T03:51:33;96913.34;;;5.69;100.00
9139;BME280;4604;48.616;9.548;2023-12-20T03:53:59;96902.56;;;5.61;100.00
9139;BME280;4604;48.616;9.548;2023-12-20T03:56:26;96924.06;;;5.66;100.00
9139;BME280;4604;48.616;9.548;2023-12-20T03:58:52;96936.97;;;5.56;100.00
9139;BME280;4604;48.616;9.548;2023-12-20T04:01:19;96903.66;;;5.45;100.00
9139;BME280;4604;48.616;9.548;2023-12-20T04:03:46;96904.41;;;5.47;100.00
9139;BME280;4604;48.616;9.548;2023-12-20T04:06:17;96929.53;;;5.50;100.00
9139;BME280;4604;48.616;9.548;2023-12-20T04:08:44;96926.81;;;5.51;100.00
9139;BME280;4604;48.616;9.548;2023-12-20T04:11:10;96919.47;;;5.44;100.00
9139;BME280;4604;48.616;9.548;2023-12-20T04:13:37;96940.41;;;5.56;100.00
9139;BME280;4604;48.616;9.548;2023-12-20T04:16:04;96927.88;;;5.36;100.00
9139;BME280;4604;48.616;9.548;2023-12-20T04:18:30;96927.75;;;5.38;100.00
9139;BME280;4604;48.616;9.548;2023-12-20T04:20:57;96943.25;;;5.41;100.00
9139;BME280;4604;48.616;9.548;2023-12-20T04:23:25;96939.28;;;5.35;100.00
9139;BME280;4604;48.616;9.548;2023-12-20T04:25:51;96935.72;;;5.36;100.00
9139;BME280;4604;48.616;9.548;2023-12-20T04:28:18;96933.84;;;5.25;100.00
9139;BME280;4604;48.616;9.548;2023-12-20T04:30:45;96936.38;;;5.27;100.00
9139;BME280;4604;48.616;9.548;2023-12-20T04:33:11;96941.47;;;5.28;100.00
9139;BME280;4604;48.616;9.548;2023-12-20T04:35:38;96947.22;;;5.33;100.00
9139;BME280;4604;48.616;9.548;2023-12-20T04:38:06;96947.75;;;5.26;100.00
9139;BME280;4604;48.616;9.548;2023-12-20T04:40:34;96951.75;;;5.19;100.00
9139;BME280;4604;48.616;9.548;2023-12-20T04:43:00;96958.00;;;5.29;100.00
9139;BME280;4604;48.616;9.548;2023-12-20T04:45:27;96950.81;;;5.20;100.00
9139;BME280;4604;48.616;9.548;2023-12-20T04:47:54;96948.72;;;5.25;100.00
9139;BME280;4604;48.616;9.548;2023-12-20T04:50:21;96946.41;;;5.33;100.00
9139;BME280;4604;48.616;9.548;2023-12-20T04:52:47;96940.44;;;5.18;100.00
9139;BME280;4604;48.616;9.548;2023-12-20T04:55:14;96949.03;;;5.20;100.00
9139;BME280;4604;48.616;9.548;2023-12-20T04:57:42;96953.41;;;5.07;100.00
9139;BME280;4604;48.616;9.548;2023-12-20T05:00:10;96968.81;;;5.11;100.00
9139;BME280;4604;48.616;9.548;2023-12-20T05:02:37;96955.63;;;5.00;100.00
9139;BME280;4604;48.616;9.548;2023-12-20T05:05:04;96960.44;;;5.06;100.00
9139;BME280;4604;48.616;9.548;2023-12-20T05:07:31;96976.75;;;4.97;100.00
9139;BME280;4604;48.616;9.548;2023-12-20T05:09:58;96974.03;;;4.99;100.00
9139;BME280;4604;48.616;9.548;2023-12-20T05:12:25;96977.59;;;4.98;100.00
9139;BME280;4604;48.616;9.548;2023-12-20T05:14:52;96987.72;;;5.02;100.00
9139;BME280;4604;48.616;9.548;2023-12-20T05:17:19;96990.56;;;4.99;100.00
9139;BME280;4604;48.616;9.548;2023-12-20T05:19:46;96990.69;;;4.98;100.00
9139;BME280;4604;48.616;9.548;2023-12-20T05:22:13;96985.44;;;4.98;100.00
9139;BME280;4604;48.616;9.548;2023-12-20T05:24:39;96995.47;;;5.04;100.00
9139;BME280;4604;48.616;9.548;2023-12-20T05:27:06;96997.34;;;5.02;100.00
9139;BME280;4604;48.616;9.548;2023-12-20T05:29:32;96993.50;;;5.07;100.00
9139;BME280;4604;48.616;9.548;2023-12-20T05:32:01;96993.69;;;5.04;100.00
9139;BME280;4604;48.616;9.548;2023-12-20T05:34:28;96990.03;;;5.07;100.00
9139;BME280;4604;48.616;9.548;2023-12-20T05:36:55;97006.06;;;5.15;100.00
9139;BME280;4604;48.616;9.548;2023-12-20T05:39:22;97014.22;;;5.23;100.00
9139;BME280;4604;48.616;9.548;2023-12-20T05:41:48;97019.16;;;5.28;100.00
9139;BME280;4604;48.616;9.548;2023-12-20T05:44:15;97021.63;;;5.17;100.00
9139;BME280;4604;48.616;9.548;2023-12-20T05:46:42;97017.13;;;5.06;100.00
9139;BME280;4604;48.616;9.548;2023-12-20T05:49:10;97028.13;;;4.98;100.00
9139;BME280;4604;48.616;9.548;2023-12-20T05:51:37;97021.63;;;4.91;100.00
9139;BME280;4604;48.616;9.548;2023-12-20T05:54:03;97023.72;;;4.99;100.00
9139;BME280;4604;48.616;9.548;2023-12-20T05:56:30;97014.00;;;5.01;100.00
9139;BME280;4604;48.616;9.548;2023-12-20T05:58:57;97018.81;;;5.07;100.00
9139;BME280;4604;48.616;9.548;2023-12-20T06:01:24;97021.00;;;5.00;100.00
9139;BME280;4604;48.616;9.548;2023-12-20T06:03:50;97037.75;;;5.10;100.00
9139;BME280;4604;48.616;9.548;2023-12-20T06:06:18;97031.56;;;5.11;100.00
9139;BME280;4604;48.616;9.548;2023-12-20T06:08:45;97030.53;;;5.14;100.00
9139;BME280;4604;48.616;9.548;2023-12-20T06:11:11;97013.88;;;5.02;100.00
9139;BME280;4604;48.616;9.548;2023-12-20T06:13:38;97033.81;;;5.18;100.00
9139;BME280;4604;48.616;9.548;2023-12-20T06:16:06;97034.94;;;5.26;100.00
9139;BME280;4604;48.616;9.548;2023-12-20T06:18:32;97026.56;;;5.21;100.00
9139;BME280;4604;48.616;9.548;2023-12-20T06:20:59;97053.16;;;5.28;100.00
9139;BME280;4604;48.616;9.548;2023-12-20T06:23:27;97046.22;;;5.14;100.00
9139;BME280;4604;48.616;9.548;2023-12-20T06:25:53;97045.63;;;5.10;100.00
9139;BME280;4604;48.616;9.548;2023-12-20T06:28:20;97050.63;;;5.01;100.00
9139;BME280;4604;48.616;9.548;2023-12-20T06:30:47;97055.53;;;5.05;100.00
9139;BME280;4604;48.616;9.548;2023-12-20T06:33:14;97056.97;;;4.97;100.00
9139;BME280;4604;48.616;9.548;2023-12-20T06:35:41;97049.78;;;5.00;100.00
9139;BME280;4604;48.616;9.548;2023-12-20T06:38:07;97057.84;;;5.10;100.00
9139;BME280;4604;48.616;9.548;2023-12-20T06:40:36;97058.78;;;5.09;100.00
9139;BME280;4604;48.616;9.548;2023-12-20T06:43:02;97055.44;;;5.07;100.00
9139;BME280;4604;48.616;9.548;2023-12-20T06:45:29;97058.25;;;5.04;100.00
9139;BME280;4604;48.616;9.548;2023-12-20T06:47:56;97056.69;;;5.01;100.00
9139;BME280;4604;48.616;9.548;2023-12-20T06:50:22;97071.53;;;5.01;100.00
9139;BME280;4604;48.616;9.548;2023-12-20T06:52:49;97077.59;;;5.01;100.00
9139;BME280;4604;48.616;9.548;2023-12-20T06:55:15;97069.53;;;4.91;100.00
9139;BME280;4604;48.616;9.548;2023-12-20T06:57:44;97065.66;;;4.97;100.00
9139;BME280;4604;48.616;9.548;2023-12-20T07:00:11;97066.69;;;4.94;100.00
9139;BME280;4604;48.616;9.548;2023-12-20T07:02:38;97064.09;;;4.94;100.00
9139;BME280;4604;48.616;9.548;2023-12-20T07:05:05;97077.28;;;4.93;100.00
9139;BME280;4604;48.616;9.548;2023-12-20T07:07:32;97084.09;;;4.96;100.00
9139;BME280;4604;48.616;9.548;2023-12-20T07:09:58;97088.06;;;5.01;100.00
9139;BME280;4604;48.616;9.548;2023-12-20T07:12:25;97082.63;;;5.04;100.00
9139;BME280;4604;48.616;9.548;2023-12-20T07:14:53;97091.22;;;5.06;100.00
9139;BME280;4604;48.616;9.548;2023-12-20T07:17:19;97090.91;;;5.11;100.00
9139;BME280;4604;48.616;9.548;2023-12-20T07:19:47;97083.66;;;5.02;100.00
9139;BME280;4604;48.616;9.548;2023-12-20T07:22:14;97100.00;;;5.05;100.00
9139;BME280;4604;48.616;9.548;2023-12-20T07:24:40;97103.41;;;5.20;100.00
9139;BME280;4604;48.616;9.548;2023-12-20T07:27:07;97103.59;;;5.17;100.00
9139;BME280;4604;48.616;9.548;2023-12-20T07:29:33;97104.66;;;5.14;100.00
9139;BME280;4604;48.616;9.548;2023-12-20T07:32:01;97114.78;;;5.19;100.00
9139;BME280;4604;48.616;9.548;2023-12-20T07:34:28;97103.19;;;5.23;100.00
9139;BME280;4604;48.616;9.548;2023-12-20T07:36:54;97119.63;;;5.25;100.00
9139;BME280;4604;48.616;9.548;2023-12-20T07:39:21;97123.66;;;5.17;100.00
9139;BME280;4604;48.616;9.548;2023-12-20T07:41:48;97115.59;;;5.07;100.00
9139;BME280;4604;48.616;9.548;2023-12-20T07:44:14;97116.97;;;5.12;100.00
9139;BME280;4604;48.616;9.548;2023-12-20T07:46:41;97121.72;;;5.20;100.00
9139;BME280;4604;48.616;9.548;2023-12-20T07:49:09;97120.97;;;5.18;100.00
9139;BME280;4604;48.616;9.548;2023-12-20T07:51:36;97118.13;;;5.21;100.00
9139;BME280;4604;48.616;9.548;2023-12-20T07:54:03;97130.09;;;5.25;100.00
9139;BME280;4604;48.616;9.548;2023-12-20T07:56:30;97134.06;;;5.31;100.00
9139;BME280;4604;48.616;9.548;2023-12-20T07:58:56;97117.22;;;5.22;100.00
9139;BME280;4604;48.616;9.548;2023-12-20T08:01:23;97129.03;;;5.28;100.00
9139;BME280;4604;48.616;9.548;2023-12-20T08:03:50;97125.81;;;5.24;100.00
9139;BME280;4604;48.616;9.548;2023-12-20T08:06:18;97130.63;;;5.30;100.00
9139;BME280;4604;48.616;9.548;2023-12-20T08:08:50;97081.56;;;4.94;100.00
9139;BME280;4604;48.616;9.548;2023-12-20T08:11:21;97099.06;;;5.06;100.00
9139;BME280;4604;48.616;9.548;2023-12-20T08:13:50;97100.44;;;5.12;100.00
9139;BME280;4604;48.616;9.548;2023-12-20T08:16:17;97160.34;;;5.29;100.00
9139;BME280;4604;48.616;9.548;2023-12-20T08:18:44;97154.59;;;5.24;100.00
9139;BME280;4604;48.616;9.548;2023-12-20T08:21:11;97150.88;;;5.14;100.00
9139;BME280;4604;48.616;9.548;2023-12-20T08:23:39;97159.09;;;5.22;100.00
9139;BME280;4604;48.616;9.548;2023-12-20T08:26:06;97158.34;;;5.20;100.00
9139;BME280;4604;48.616;9.548;2023-12-20T08:28:33;97160.94;;;5.20;100.00
9139;BME280;4604;48.616;9.548;2023-12-20T08:30:59;97162.78;;;5.05;100.00
9139;BME280;4604;48.616;9.548;2023-12-20T08:33:26;97165.41;;;5.05;100.00
9139;BME280;4604;48.616;9.548;2023-12-20T08:35:53;97154.19;;;5.03;100.00
9139;BME280;4604;48.616;9.548;2023-12-20T08:38:19;97166.97;;;5.08;100.00
9139;BME280;4604;48.616;9.548;2023-12-20T08:40:47;97145.81;;;4.98;100.00
9139;BME280;4604;48.616;9.548;2023-12-20T08:43:14;97166.88;;;5.09;100.00
9139;BME280;4604;48.616;9.548;2023-12-20T08:45:41;97173.50;;;5.15;100.00
9139;BME280;4604;48.616;9.548;2023-12-20T08:48:11;97154.69;;;4.96;100.00
9139;BME280;4604;48.616;9.548;2023-12-20T08:50:37;97170.53;;;5.07;100.00
9139;BME280;4604;48.616;9.548;2023-12-20T08:53:04;97163.81;;;5.03;100.00
9139;BME280;4604;48.616;9.548;2023-12-20T08:55:30;97176.63;;;5.07;100.00
9139;BME280;4604;48.616;9.548;2023-12-20T08:57:58;97179.53;;;5.03;100.00
9139;BME280;4604;48.616;9.548;2023-12-20T09:00:25;97183.25;;;4.99;100.00
9139;BME280;4604;48.616;9.548;2023-12-20T09:02:53;97184.94;;;5.00;100.00
9139;BME280;4604;48.616;9.548;2023-12-20T09:05:19;97159.97;;;4.81;100.00
9139;BME280;4604;48.616;9.548;2023-12-20T09:07:46;97176.94;;;4.88;100.00
9139;BME280;4604;48.616;9.548;2023-12-20T09:10:13;97175.25;;;4.87;100.00
9139;BME280;4604;48.616;9.548;2023-12-20T09:12:39;97165.19;;;4.81;100.00
9139;BME280;4604;48.616;9.548;2023-12-20T09:15:09;97164.78;;;4.87;100.00
9139;BME280;4604;48.616;9.548;2023-12-20T09:17:35;97185.81;;;4.86;100.00
9139;BME280;4604;48.616;9.548;2023-12-20T09:20:02;97187.44;;;4.74;100.00
9139;BME280;4604;48.616;9.548;2023-12-20T09:22:32;97190.91;;;4.60;100.00
9139;BME280;4604;48.616;9.548;2023-12-20T09:24:58;97182.22;;;4.60;100.00
9139;BME280;4604;48.616;9.548;2023-12-20T09:27:25;97185.03;;;4.57;100.00
9139;BME280;4604;48.616;9.548;2023-12-20T09:29:52;97177.97;;;4.44;100.00
9139;BME280;4604;48.616;9.548;2023-12-20T09:32:21;97174.53;;;4.44;100.00
9139;BME280;4604;48.616;9.548;2023-12-20T09:34:48;97178.13;;;4.56;100.00
9139;BME280;4604;48.616;9.548;2023-12-20T09:37:14;97186.25;;;4.51;100.00
9139;BME280;4604;48.616;9.548;2023-12-20T09:39:41;97192.34;;;4.52;100.00
9139;BME280;4604;48.616;9.548;2023-12-20T09:42:08;97187.66;;;4.42;100.00
9139;BME280;4604;48.616;9.548;2023-12-20T09:44:37;97194.69;;;4.42;100.00
9139;BME280;4604;48.616;9.548;2023-12-20T09:47:08;97183.81;;;4.48;100.00
9139;BME280;4604;48.616;9.548;2023-12-20T09:49:36;97191.66;;;4.62;100.00
9139;BME280;4604;48.616;9.548;2023-12-20T09:52:05;97187.38;;;4.61;100.00
9139;BME280;4604;48.616;9.548;2023-12-20T09:54:34;97194.53;;;4.72;100.00
9139;BME280;4604;48.616;9.548;2023-12-20T09:57:00;97183.50;;;4.81;100.00
9139;BME280;4604;48.616;9.548;2023-12-20T09:59:27;97195.72;;;4.95;100.00
9139;BME280;4604;48.616;9.548;2023-12-20T10:01:55;97193.13;;;4.81;100.00
9139;BME280;4604;48.616;9.548;2023-12-20T10:04:22;97199.66;;;4.88;100.00
9139;BME280;4604;48.616;9.548;2023-12-20T10:06:50;97207.63;;;4.99;100.00
9139;BME280;4604;48.616;9.548;2023-12-20T10:09:17;97203.41;;;5.11;100.00
9139;BME280;4604;48.616;9.548;2023-12-20T10:11:44;97194.16;;;5.32;100.00
9139;BME280;4604;48.616;9.548;2023-12-20T10:14:11;97202.31;;;5.28;100.00
9139;BME280;4604;48.616;9.548;2023-12-20T10:16:39;97196.34;;;5.26;100.00
9139;BME280;4604;48.616;9.548;2023-12-20T10:19:07;97173.59;;;5.13;100.00
9139;BME280;4604;48.616;9.548;2023-12-20T10:21:33;97192.94;;;5.11;100.00
9139;BME280;4604;48.616;9.548;2023-12-20T10:24:01;97201.31;;;5.16;100.00
9139;BME280;4604;48.616;9.548;2023-12-20T10:26:28;97191.28;;;5.10;100.00
9139;BME280;4604;48.616;9.548;2023-12-20T10:28:55;97195.72;;;5.22;100.00
9139;BME280;4604;48.616;9.548;2023-12-20T10:31:26;97199.38;;;5.20;100.00
9139;BME280;4604;48.616;9.548;2023-12-20T10:33:55;97198.81;;;5.14;100.00
9139;BME280;4604;48.616;9.548;2023-12-20T10:36:23;97190.31;;;5.11;100.00
9139;BME280;4604;48.616;9.548;2023-12-20T10:38:50;97193.19;;;5.21;100.00
9139;BME280;4604;48.616;9.548;2023-12-20T10:41:24;97188.28;;;5.02;100.00
9139;BME280;4604;48.616;9.548;2023-12-20T10:43:53;97177.00;;;5.01;100.00
9139;BME280;4604;48.616;9.548;2023-12-20T10:46:21;97175.56;;;5.10;100.00
9139;BME280;4604;48.616;9.548;2023-12-20T10:48:48;97176.84;;;5.17;100.00
9139;BME280;4604;48.616;9.548;2023-12-20T10:51:17;97180.00;;;5.22;100.00
9139;BME280;4604;48.616;9.548;2023-12-20T10:53:46;97181.38;;;5.28;100.00
9139;BME280;4604;48.616;9.548;2023-12-20T10:56:16;97183.84;;;5.17;100.00
9139;BME280;4604;48.616;9.548;2023-12-20T10:58:45;97184.50;;;5.20;100.00
9139;BME280;4604;48.616;9.548;2023-12-20T11:01:13;97175.69;;;5.21;100.00
9139;BME280;4604;48.616;9.548;2023-12-20T11:03:44;97176.69;;;5.06;99.04
9139;BME280;4604;48.616;9.548;2023-12-20T11:06:26;97181.44;;;5.13;100.00
9139;BME280;4604;48.616;9.548;2023-12-20T11:09:01;97187.16;;;5.06;100.00
9139;BME280;4604;48.616;9.548;2023-12-20T11:11:37;97183.75;;;5.18;100.00
9139;BME280;4604;48.616;9.548;2023-12-20T11:14:14;97178.53;;;5.18;100.00
9139;BME280;4604;48.616;9.548;2023-12-20T11:16:42;97143.72;;;5.03;100.00
9139;BME280;4604;48.616;9.548;2023-12-20T11:19:11;97161.34;;;5.14;100.00
9139;BME280;4604;48.616;9.548;2023-12-20T11:21:39;97162.31;;;5.26;100.00
9139;BME280;4604;48.616;9.548;2023-12-20T11:24:06;97161.88;;;5.46;100.00
9139;BME280;4604;48.616;9.548;2023-12-20T11:26:33;97157.63;;;5.44;100.00
9139;BME280;4604;48.616;9.548;2023-12-20T11:29:35;97171.69;;;5.43;98.98
9139;BME280;4604;48.616;9.548;2023-12-20T11:32:03;97163.44;;;5.49;98.28
9139;BME280;4604;48.616;9.548;2023-12-20T11:34:33;97144.66;;;5.29;93.86
9139;BME280;4604;48.616;9.548;2023-12-20T11:37:02;97172.94;;;5.37;91.80
9139;BME280;4604;48.616;9.548;2023-12-20T11:39:30;97152.44;;;5.17;92.09
9139;BME280;4604;48.616;9.548;2023-12-20T11:41:57;97155.75;;;5.33;91.10
9139;BME280;4604;48.616;9.548;2023-12-20T11:44:55;97150.00;;;5.41;87.99
9139;BME280;4604;48.616;9.548;2023-12-20T11:47:22;97143.50;;;5.33;90.52
9139;BME280;4604;48.616;9.548;2023-12-20T11:49:49;97149.91;;;5.42;91.58
9139;BME280;4604;48.616;9.548;2023-12-20T11:52:16;97149.47;;;5.35;92.30
9139;BME280;4604;48.616;9.548;2023-12-20T11:54:45;97157.91;;;5.26;91.67
9139;BME280;4604;48.616;9.548;2023-12-20T11:57:13;97158.78;;;5.27;88.09
9139;BME280;4604;48.616;9.548;2023-12-20T11:59:39;97149.84;;;5.17;88.38
9139;BME280;4604;48.616;9.548;2023-12-20T12:02:07;97157.22;;;5.24;89.54
9139;BME280;4604;48.616;9.548;2023-12-20T12:04:34;97151.97;;;5.24;89.09
9139;BME280;4604;48.616;9.548;2023-12-20T12:07:01;97137.63;;;5.17;89.99
9139;BME280;4604;48.616;9.548;2023-12-20T12:09:28;97130.47;;;5.19;90.21
9139;BME280;4604;48.616;9.548;2023-12-20T12:11:55;97140.56;;;5.25;92.30
9139;BME280;4604;48.616;9.548;2023-12-20T12:14:21;97134.06;;;5.31;90.76
9139;BME280;4604;48.616;9.548;2023-12-20T12:16:48;97133.03;;;5.33;91.77
9139;BME280;4604;48.616;9.548;2023-12-20T12:19:23;97116.47;;;5.20;91.92
9139;BME280;4604;48.616;9.548;2023-12-20T12:21:50;97117.97;;;5.24;92.21
9139;BME280;4604;48.616;9.548;2023-12-20T12:24:20;97128.53;;;5.35;91.25
9139;BME280;4604;48.616;9.548;2023-12-20T12:26:50;97145.94;;;5.36;88.60
9139;BME280;4604;48.616;9.548;2023-12-20T12:29:16;97140.28;;;5.43;83.70
9139;BME280;4604;48.616;9.548;2023-12-20T12:31:43;97121.28;;;5.26;82.16
9139;BME280;4604;48.616;9.548;2023-12-20T12:34:10;97131.03;;;5.24;83.65
9139;BME280;4604;48.616;9.548;2023-12-20T12:36:38;97139.59;;;5.26;81.07
9139;BME280;4604;48.616;9.548;2023-12-20T12:39:05;97135.63;;;5.21;80.71
9139;BME280;4604;48.616;9.548;2023-12-20T12:41:32;97130.84;;;5.27;80.07
9139;BME280;4604;48.616;9.548;2023-12-20T12:43:59;97129.19;;;5.12;81.70
9139;BME280;4604;48.616;9.548;2023-12-20T12:46:25;97124.69;;;5.01;82.37
9139;BME280;4604;48.616;9.548;2023-12-20T12:48:52;97133.81;;;5.08;81.01
9139;BME280;4604;48.616;9.548;2023-12-20T12:51:18;97123.31;;;4.96;82.61
9139;BME280;4604;48.616;9.548;2023-12-20T12:53:46;97122.56;;;4.93;82.83
9139;BME280;4604;48.616;9.548;2023-12-20T12:56:13;97139.66;;;5.12;85.01
9139;BME280;4604;48.616;9.548;2023-12-20T12:58:40;97134.41;;;4.99;84.65
9139;BME280;4604;48.616;9.548;2023-12-20T13:01:07;97147.19;;;5.04;85.40
9139;BME280;4604;48.616;9.548;2023-12-20T13:03:34;97160.75;;;4.96;83.92
9139;BME280;4604;48.616;9.548;2023-12-20T13:06:01;97140.16;;;4.77;84.96
9139;BME280;4604;48.616;9.548;2023-12-20T13:08:28;97136.97;;;4.86;86.59
9139;BME280;4604;48.616;9.548;2023-12-20T13:10:56;97138.84;;;4.84;86.87
9139;BME280;4604;48.616;9.548;2023-12-20T13:13:26;97145.94;;;4.82;88.19
9139;BME280;4604;48.616;9.548;2023-12-20T13:15:52;97140.38;;;4.74;89.21
9139;BME280;4604;48.616;9.548;2023-12-20T13:18:20;97141.75;;;4.80;91.22
9139;BME280;4604;48.616;9.548;2023-12-20T13:20:47;97132.38;;;4.90;91.95
9139;BME280;4604;48.616;9.548;2023-12-20T13:23:14;97101.38;;;4.71;91.06
9139;BME280;4604;48.616;9.548;2023-12-20T13:25:41;97100.22;;;4.75;91.37